Terminal Aerodrome Forecast
Issued by NWS Sioux Falls, SD

Home | Current Version | Previous Version | Graphics & Text | Print | Product List | Glossary On
Versions: 1 2 3 4 5 6 7 8 9 10 11 12 13 14 15 16 17 18 19 20 21 22 23 24 25 26 27 28
000
FTUS43 KFSD 181128
TAFSUX
TAF
KSUX 181128Z 1812/1912 17016G27KT P6SM SCT250 WS020/20055KT
     FM181700 19022G34KT P6SM FEW250 WS020/21050KT
     FM182100 19012KT P6SM FEW250
     FM190100 VRB03KT P6SM SCT150
     FM190300 36010KT P6SM BKN015
     FM190500 36014KT 5SM BR BKN008
     FM190600 01013KT 5SM -FZDZ BKN008
     FM191100 01017KT 6SM -FZRA OVC010=

USA.gov is the U.S. government's official web portal to all federal, state and local government web resources and services.